createdAt,value
2018-04-20T00:02:10.004Z,3.97
2018-04-20T00:04:38.999Z,3.93
2018-04-20T00:07:08.042Z,4.03
2018-04-20T00:09:36.295Z,3.37
2018-04-20T00:12:05.326Z,3.40
2018-04-20T00:14:33.590Z,3.70
2018-04-20T00:17:03.753Z,4.10
2018-04-20T00:19:32.045Z,3.60
2018-04-20T00:22:00.306Z,3.43
2018-04-20T00:24:28.582Z,3.83
2018-04-20T00:26:57.573Z,4.43
2018-04-20T00:29:25.841Z,3.83
2018-04-20T00:31:54.110Z,3.80
2018-04-20T00:34:22.411Z,3.87
2018-04-20T00:36:50.686Z,3.57
2018-04-20T00:39:19.196Z,3.60
2018-04-20T00:41:47.435Z,3.90
2018-04-20T00:44:17.259Z,3.60
2018-04-20T00:46:46.640Z,4.10
2018-04-20T00:49:14.909Z,3.53
2018-04-20T00:51:43.144Z,3.53
2018-04-20T00:54:24.847Z,3.73
2018-04-20T00:56:53.871Z,3.30
2018-04-20T00:59:22.980Z,3.10
2018-04-20T01:01:52.583Z,3.17
2018-04-20T01:04:20.870Z,2.73
2018-04-20T01:06:49.177Z,3.70
2018-04-20T01:09:18.206Z,3.60
2018-04-20T01:11:46.443Z,3.60
2018-04-20T01:14:14.692Z,3.63
2018-04-20T01:16:42.966Z,3.20
2018-04-20T01:19:11.220Z,3.70
2018-04-20T01:21:39.471Z,3.50
2018-04-20T01:24:08.509Z,3.97
2018-04-20T01:26:36.759Z,3.17
2018-04-20T01:29:05.011Z,3.40
2018-04-20T01:31:34.039Z,3.50
2018-04-20T01:34:02.311Z,3.40
2018-04-20T01:36:31.336Z,3.27
2018-04-20T01:38:59.595Z,3.67
2018-04-20T01:41:28.598Z,3.50
2018-04-20T01:43:57.616Z,3.50
2018-04-20T01:46:25.864Z,3.80
2018-04-20T01:48:54.109Z,3.50
2018-04-20T01:51:22.371Z,4.00
2018-04-20T01:53:51.379Z,3.30
2018-04-20T01:56:20.421Z,3.60
2018-04-20T01:58:48.696Z,3.90
2018-04-20T02:01:16.952Z,3.83
2018-04-20T02:03:45.963Z,3.90
2018-04-20T02:06:15.079Z,3.30
2018-04-20T02:08:44.080Z,3.80
2018-04-20T02:11:13.192Z,3.73
2018-04-20T02:13:41.479Z,3.40
2018-04-20T02:16:10.609Z,3.57
2018-04-20T02:18:38.831Z,4.03
2018-04-20T02:21:07.184Z,3.53
2018-04-20T02:23:35.442Z,4.00
2018-04-20T02:26:03.768Z,4.00
2018-04-20T02:28:32.860Z,4.23
2018-04-20T02:31:02.017Z,4.10
2018-04-20T02:33:30.215Z,3.60
2018-04-20T02:35:58.470Z,4.20
2018-04-20T02:38:26.712Z,3.93
2018-04-20T02:40:55.027Z,4.47
2018-04-20T02:43:24.032Z,4.57
2018-04-20T02:45:53.053Z,4.60
2018-04-20T02:48:21.329Z,4.73
2018-04-20T02:50:50.331Z,4.83
2018-04-20T02:53:19.341Z,4.40
2018-04-20T02:55:47.603Z,4.17
2018-04-20T02:58:16.652Z,4.80
2018-04-20T03:00:45.664Z,4.20
2018-04-20T03:05:41.182Z,3.90
2018-04-20T03:08:10.159Z,3.50
2018-04-20T03:10:38.472Z,3.60
2018-04-20T03:13:06.689Z,3.37
2018-04-20T03:15:34.924Z,3.47
2018-04-20T03:18:03.167Z,4.07
2018-04-20T03:20:31.531Z,4.33
2018-04-20T03:22:59.732Z,3.13
2018-04-20T03:25:28.761Z,4.07
2018-04-20T03:27:57.000Z,3.97
2018-04-20T03:30:25.235Z,4.73
2018-04-20T03:32:53.490Z,4.50
2018-04-20T03:35:21.803Z,3.83
2018-04-20T03:37:50.854Z,4.23
2018-04-20T03:40:19.048Z,4.47
2018-04-20T03:42:47.306Z,4.07
2018-04-20T03:45:15.541Z,4.47
2018-04-20T03:47:43.783Z,4.20
2018-04-20T03:50:12.150Z,3.77
2018-04-20T03:52:41.252Z,4.37
2018-04-20T03:55:10.265Z,4.13
2018-04-20T03:57:39.362Z,4.30
2018-04-20T04:00:07.594Z,4.00
2018-04-20T04:02:35.832Z,4.10
2018-04-20T04:05:04.101Z,3.93
2018-04-20T04:07:32.376Z,3.73
2018-04-20T04:10:00.665Z,3.63
2018-04-20T04:12:29.040Z,3.63
2018-04-20T04:14:57.332Z,3.10
2018-04-20T04:17:43.351Z,3.60
2018-04-20T04:20:29.663Z,3.67
2018-04-20T04:26:28.032Z,3.40
2018-04-20T04:28:56.277Z,3.50
2018-04-20T04:31:24.499Z,3.47
2018-04-20T04:33:52.738Z,3.60
2018-04-20T04:36:21.012Z,3.90
2018-04-20T04:38:50.039Z,4.10
2018-04-20T04:41:18.428Z,4.67
2018-04-20T04:43:46.675Z,4.77
2018-04-20T04:46:14.896Z,4.67
2018-04-20T04:48:43.159Z,4.83
2018-04-20T04:51:12.166Z,4.40
2018-04-20T04:53:41.192Z,5.33
2018-04-20T04:56:09.427Z,5.00
2018-04-20T04:58:38.435Z,4.93
2018-04-20T05:01:06.678Z,4.57
2018-04-20T05:03:34.942Z,4.97
2018-04-20T05:06:03.201Z,4.97
2018-04-20T05:08:31.477Z,4.90
2018-04-20T05:10:59.750Z,4.47
2018-04-20T05:13:28.032Z,4.20
2018-04-20T05:15:56.268Z,4.20
2018-04-20T05:18:24.521Z,3.90
2018-04-20T05:20:52.777Z,4.40
2018-04-20T05:23:21.809Z,4.13
2018-04-20T05:25:50.064Z,4.60
2018-04-20T05:28:18.349Z,4.20
2018-04-20T05:30:47.347Z,4.17
2018-04-20T05:33:15.614Z,4.10
2018-04-20T05:35:44.622Z,4.40
2018-04-20T05:38:13.653Z,3.77
2018-04-20T05:40:41.938Z,4.20
2018-04-20T05:43:10.154Z,4.13
2018-04-20T05:45:38.406Z,4.03
2018-04-20T05:48:06.654Z,4.20
2018-04-20T05:50:34.911Z,3.90
2018-04-20T05:53:03.961Z,3.87
2018-04-20T05:55:32.254Z,4.40
2018-04-20T05:58:00.571Z,3.83
2018-04-20T06:00:28.805Z,4.90
2018-04-20T06:02:57.083Z,4.60
2018-04-20T06:05:26.115Z,4.50
2018-04-20T06:07:54.372Z,3.90
2018-04-20T06:10:23.400Z,4.40
2018-04-20T06:12:51.639Z,4.40
2018-04-20T06:15:19.917Z,4.47
2018-04-20T06:17:48.189Z,4.50
2018-04-20T06:20:16.418Z,4.50
2018-04-20T06:22:44.653Z,4.83
2018-04-20T06:25:12.903Z,4.43
2018-04-20T06:27:41.913Z,4.27
2018-04-20T06:30:10.985Z,4.90
2018-04-20T06:32:39.222Z,5.23
2018-04-20T06:35:08.249Z,5.13
2018-04-20T06:37:36.493Z,5.70
2018-04-20T06:40:04.736Z,5.03
2018-04-20T06:42:32.986Z,5.70
2018-04-20T06:45:02.029Z,5.40
2018-04-20T06:47:30.287Z,5.87
2018-04-20T06:49:59.308Z,6.53
2018-04-20T06:52:27.627Z,6.47
2018-04-20T06:54:55.949Z,6.63
2018-04-20T06:57:24.190Z,7.47
2018-04-20T06:59:52.456Z,6.13
2018-04-20T07:02:20.734Z,7.70
2018-04-20T07:04:48.994Z,6.80
2018-04-20T07:07:17.239Z,6.43
2018-04-20T07:09:45.597Z,7.30
2018-04-20T07:12:13.849Z,7.17
2018-04-20T07:14:42.157Z,6.77
2018-04-20T07:17:10.424Z,6.70
2018-04-20T07:19:38.683Z,7.30
2018-04-20T07:22:06.949Z,7.60
2018-04-20T07:24:36.714Z,6.50
2018-04-20T07:27:04.991Z,6.87
2018-04-20T07:29:33.250Z,6.33
2018-04-20T07:32:01.511Z,7.00
2018-04-20T07:34:29.798Z,7.27
2018-04-20T07:36:58.066Z,6.90
2018-04-20T07:39:26.338Z,6.90
2018-04-20T07:41:54.606Z,6.97
2018-04-20T07:44:23.636Z,6.60
2018-04-20T07:46:51.911Z,7.20
2018-04-20T07:49:20.155Z,7.63
2018-04-20T07:51:48.502Z,6.73
2018-04-20T07:54:16.765Z,6.80
2018-04-20T07:56:45.817Z,6.97
2018-04-20T07:59:14.066Z,7.23
2018-04-20T08:01:43.080Z,7.07
2018-04-20T08:04:11.341Z,6.60
2018-04-20T08:06:39.617Z,7.27
2018-04-20T08:09:08.623Z,6.80
2018-04-20T08:11:36.887Z,7.50
2018-04-20T08:14:05.896Z,7.27
2018-04-20T08:16:34.153Z,7.40
2018-04-20T08:19:02.406Z,6.83
2018-04-20T08:21:30.693Z,6.80
2018-04-20T08:23:58.941Z,7.67
2018-04-20T08:26:27.219Z,7.17
2018-04-20T08:28:55.475Z,7.40
2018-04-20T08:31:24.499Z,6.47
2018-04-20T08:33:52.744Z,11.20
2018-04-20T08:36:21.004Z,6.90
2018-04-20T08:38:49.475Z,6.93
2018-04-20T08:41:17.760Z,7.03
2018-04-20T08:43:46.771Z,7.87
2018-04-20T08:46:15.034Z,6.80
2018-04-20T08:48:44.115Z,7.70
2018-04-20T08:51:12.402Z,7.70
2018-04-20T08:53:40.670Z,7.23
2018-04-20T08:56:08.919Z,6.73
2018-04-20T08:58:37.956Z,6.40
2018-04-20T09:01:06.987Z,7.20
2018-04-20T09:03:35.263Z,7.00
2018-04-20T09:06:03.521Z,7.77
2018-04-20T09:08:31.864Z,6.80
2018-04-20T09:11:00.921Z,6.20
2018-04-20T09:13:29.187Z,6.10
2018-04-20T09:15:58.199Z,5.67
2018-04-20T09:18:27.250Z,6.00
2018-04-20T09:20:55.479Z,7.00
2018-04-20T09:23:23.763Z,5.27
2018-04-20T09:25:52.033Z,6.10
2018-04-20T09:28:20.393Z,6.07
2018-04-20T09:30:48.661Z,6.07
2018-04-20T09:33:17.674Z,6.57
2018-04-20T09:35:45.948Z,6.27
2018-04-20T09:38:14.987Z,6.00
2018-04-20T09:40:43.237Z,6.17
2018-04-20T09:43:12.259Z,5.80
2018-04-20T09:45:40.515Z,6.03
2018-04-20T09:48:08.777Z,5.67
2018-04-20T09:50:37.824Z,5.67
2018-04-20T09:53:06.839Z,6.50
2018-04-20T09:55:35.085Z,6.00
2018-04-20T09:58:03.350Z,5.73
2018-04-20T10:00:37.218Z,5.17
2018-04-20T10:03:07.212Z,5.70
2018-04-20T10:05:35.518Z,5.93
2018-04-20T10:08:04.532Z,5.27
2018-04-20T10:10:32.797Z,5.63
2018-04-20T10:13:01.099Z,5.50
2018-04-20T10:15:29.361Z,5.40
2018-04-20T10:17:57.617Z,6.07
2018-04-20T10:20:26.640Z,5.17
2018-04-20T10:22:54.878Z,5.07
2018-04-20T10:25:23.159Z,4.87
2018-04-20T10:27:51.415Z,5.63
2018-04-20T10:30:19.695Z,4.70
2018-04-20T10:32:47.947Z,4.93
2018-04-20T10:35:16.200Z,4.53
2018-04-20T10:37:45.201Z,5.47
2018-04-20T10:40:13.455Z,5.77
2018-04-20T10:42:42.459Z,5.37
2018-04-20T10:45:11.505Z,5.10
2018-04-20T10:47:39.780Z,5.83
2018-04-20T10:50:08.836Z,5.70
2018-04-20T10:52:37.085Z,5.67
2018-04-20T10:55:05.367Z,4.87
2018-04-20T10:57:33.611Z,5.37
2018-04-20T11:00:01.929Z,4.83
2018-04-20T11:02:30.934Z,5.00
2018-04-20T11:04:59.206Z,4.90
2018-04-20T11:07:27.450Z,4.97
2018-04-20T11:09:56.481Z,5.70
2018-04-20T11:12:24.728Z,5.33
2018-04-20T11:14:52.983Z,5.10
2018-04-20T11:17:22.004Z,6.07
2018-04-20T11:19:51.028Z,5.50
2018-04-20T11:22:19.305Z,5.03
2018-04-20T11:24:48.328Z,4.83
2018-04-20T11:27:16.578Z,3.97
2018-04-20T11:29:45.627Z,3.97
2018-04-20T11:32:13.881Z,4.10
2018-04-20T11:34:42.889Z,3.80
2018-04-20T11:37:11.903Z,4.27
2018-04-20T11:39:40.930Z,6.00
2018-04-20T11:42:09.187Z,6.33
2018-04-20T11:44:38.223Z,5.33
2018-04-20T11:47:06.476Z,4.73
2018-04-20T11:49:35.504Z,4.60
2018-04-20T11:52:03.766Z,3.90
2018-04-20T11:54:32.796Z,6.70
2018-04-20T11:57:01.851Z,5.30
2018-04-20T11:59:30.113Z,5.30
2018-04-20T12:01:58.364Z,5.00
2018-04-20T12:04:27.633Z,5.70
2018-04-20T12:06:55.874Z,5.90
2018-04-20T12:09:24.904Z,5.67
2018-04-20T12:11:53.167Z,6.90
2018-04-20T12:14:22.300Z,6.97
2018-04-20T12:16:51.320Z,6.87
2018-04-20T12:19:19.584Z,7.27
2018-04-20T12:21:48.602Z,6.10
2018-04-20T12:24:16.840Z,6.73
2018-04-20T12:26:45.129Z,6.47
2018-04-20T12:29:13.375Z,7.37
2018-04-20T12:31:41.640Z,7.03
2018-04-20T12:34:10.670Z,6.77
2018-04-20T12:36:38.941Z,6.47
2018-04-20T12:39:08.085Z,5.77
2018-04-20T12:41:36.343Z,5.30
2018-04-20T12:44:05.391Z,5.60
2018-04-20T12:46:33.663Z,6.73
2018-04-20T12:49:01.922Z,6.37
2018-04-20T12:51:30.980Z,7.17
2018-04-20T12:53:59.239Z,6.80
2018-04-20T12:56:27.614Z,6.27
2018-04-20T12:58:56.614Z,7.13
2018-04-20T13:01:25.652Z,7.50
2018-04-20T13:03:53.888Z,6.53
2018-04-20T13:06:22.167Z,6.13
2018-04-20T13:08:50.487Z,7.10
2018-04-20T13:11:18.707Z,8.50
2018-04-20T13:13:46.957Z,8.13
2018-04-20T13:16:15.380Z,6.93
2018-04-20T13:18:44.380Z,7.17
2018-04-20T13:21:12.643Z,7.93
2018-04-20T13:23:40.901Z,6.43
2018-04-20T13:26:09.158Z,7.17
2018-04-20T13:28:37.406Z,7.73
2018-04-20T13:31:05.666Z,6.60
2018-04-20T13:33:33.935Z,6.57
2018-04-20T13:36:02.202Z,6.03
2018-04-20T13:38:32.094Z,6.93
2018-04-20T13:41:00.407Z,6.80
2018-04-20T13:43:29.461Z,5.60
2018-04-20T13:45:57.731Z,6.20
2018-04-20T13:48:26.034Z,5.50
2018-04-20T13:50:54.302Z,5.07
2018-04-20T13:53:22.563Z,6.23
2018-04-20T13:55:51.646Z,6.40
2018-04-20T13:58:19.939Z,5.90
2018-04-20T14:00:48.957Z,6.60
2018-04-20T14:03:17.276Z,7.00
2018-04-20T14:05:45.487Z,6.57
2018-04-20T14:08:13.808Z,7.70
2018-04-20T14:10:42.056Z,8.57
2018-04-20T14:13:10.334Z,8.03
2018-04-20T14:15:40.113Z,8.63
2018-04-20T14:18:08.424Z,7.30
2018-04-20T14:20:36.688Z,6.73
2018-04-20T14:23:05.724Z,6.63
2018-04-20T14:25:34.785Z,7.17
2018-04-20T14:28:03.074Z,7.40
2018-04-20T14:30:31.324Z,7.60
2018-04-20T14:32:59.647Z,9.10
2018-04-20T14:35:27.907Z,6.63
2018-04-20T14:37:56.983Z,7.17
2018-04-20T14:40:25.251Z,6.40
2018-04-20T14:42:53.528Z,5.70
2018-04-20T14:45:21.782Z,7.07
2018-04-20T14:47:50.828Z,6.50
2018-04-20T14:50:19.091Z,6.37
2018-04-20T14:52:47.374Z,6.90
2018-04-20T14:55:15.623Z,6.30
2018-04-20T14:57:43.884Z,6.30
2018-04-20T15:00:12.118Z,6.17
2018-04-20T15:02:41.904Z,6.73
2018-04-20T15:05:10.150Z,6.10
2018-04-20T15:07:38.428Z,6.87
2018-04-20T15:10:07.451Z,6.13
2018-04-20T15:12:36.475Z,5.37
2018-04-20T15:15:04.708Z,6.00
2018-04-20T15:17:32.982Z,6.30
2018-04-20T15:20:01.261Z,5.53
2018-04-20T15:22:30.038Z,6.43
2018-04-20T15:24:58.276Z,5.80
2018-04-20T15:27:26.525Z,6.50
2018-04-20T15:29:54.863Z,6.57
2018-04-20T15:32:23.083Z,6.10
2018-04-20T15:34:51.346Z,6.33
2018-04-20T15:37:20.363Z,7.43
2018-04-20T15:39:49.515Z,6.97
2018-04-20T15:42:17.770Z,5.90
2018-04-20T15:44:46.023Z,6.17
2018-04-20T15:47:14.333Z,6.13
2018-04-20T15:49:43.375Z,7.13
2018-04-20T15:52:11.630Z,6.53
2018-04-20T15:54:39.904Z,5.77
2018-04-20T15:57:08.147Z,5.13
2018-04-20T15:59:36.431Z,6.13
2018-04-20T16:02:04.687Z,5.03
2018-04-20T16:04:33.746Z,4.93
2018-04-20T16:07:02.006Z,5.33
2018-04-20T16:09:30.302Z,5.37
2018-04-20T16:11:58.579Z,5.43
2018-04-20T16:14:26.855Z,5.47
2018-04-20T16:16:55.855Z,4.93
2018-04-20T16:19:24.895Z,4.50
2018-04-20T16:21:53.144Z,5.50
2018-04-20T16:24:22.189Z,4.93
2018-04-20T16:26:50.444Z,5.20
2018-04-20T16:29:18.703Z,4.50
2018-04-20T16:31:46.951Z,5.10
2018-04-20T16:34:15.975Z,4.40
2018-04-20T16:36:45.075Z,5.67
2018-04-20T16:39:13.388Z,5.40
2018-04-20T16:41:42.332Z,4.70
2018-04-20T16:44:11.361Z,5.97
2018-04-20T16:46:39.617Z,5.30
2018-04-20T16:49:08.633Z,4.70
2018-04-20T16:51:36.879Z,4.50
2018-04-20T16:54:05.202Z,4.40
2018-04-20T16:56:33.456Z,3.90
2018-04-20T16:59:02.517Z,3.73
2018-04-20T17:01:31.543Z,3.03
2018-04-20T17:03:59.951Z,3.50
2018-04-20T17:06:28.247Z,3.20
2018-04-20T17:08:56.524Z,3.93
2018-04-20T17:11:24.800Z,3.60
2018-04-20T17:13:53.071Z,3.27
2018-04-20T17:16:22.179Z,3.67
2018-04-20T17:18:51.216Z,2.73
2018-04-20T17:21:19.499Z,3.43
2018-04-20T17:23:48.525Z,3.40
2018-04-20T17:26:16.787Z,3.60
2018-04-20T17:28:45.038Z,3.40
2018-04-20T17:31:13.308Z,3.30
2018-04-20T17:33:41.535Z,2.80
2018-04-20T17:36:10.636Z,3.37
2018-04-20T17:38:38.866Z,3.67
2018-04-20T17:41:07.135Z,3.23
2018-04-20T17:43:35.391Z,3.07
2018-04-20T17:46:04.436Z,3.50
2018-04-20T17:48:32.687Z,3.50
2018-04-20T17:51:00.991Z,3.47
2018-04-20T17:53:29.211Z,3.83
2018-04-20T17:55:57.473Z,8.07
2018-04-20T17:58:26.512Z,7.83
2018-04-20T18:00:54.787Z,8.40
2018-04-20T18:05:57.493Z,6.07
2018-04-20T18:08:26.520Z,5.33
2018-04-20T18:10:54.784Z,5.53
2018-04-20T18:13:23.787Z,4.37
2018-04-20T18:15:52.080Z,4.50
2018-04-20T18:18:21.131Z,4.30
2018-04-20T18:20:49.404Z,5.07
2018-04-20T18:23:17.671Z,4.13
2018-04-20T18:25:46.701Z,4.30
2018-04-20T18:28:14.944Z,4.10
2018-04-20T18:30:43.201Z,4.43
2018-04-20T18:33:11.438Z,4.40
2018-04-20T18:35:40.466Z,4.07
2018-04-20T18:38:08.705Z,4.30
2018-04-20T18:40:36.983Z,4.50
2018-04-20T18:43:05.258Z,5.00
2018-04-20T18:45:33.546Z,5.57
2018-04-20T18:48:01.821Z,5.33
2018-04-20T18:50:30.153Z,12.07
2018-04-20T18:52:59.221Z,6.80
2018-04-20T18:55:27.461Z,5.43
2018-04-20T18:57:55.729Z,4.93
2018-04-20T19:00:24.724Z,5.23
2018-04-20T19:02:52.989Z,4.73
2018-04-20T19:05:21.292Z,6.23
2018-04-20T19:07:49.558Z,6.70
2018-04-20T19:10:17.828Z,5.97
2018-04-20T19:12:46.879Z,5.50
2018-04-20T19:15:15.119Z,5.87
2018-04-20T19:17:43.400Z,5.37
2018-04-20T19:20:11.689Z,5.67
2018-04-20T19:22:40.705Z,5.47
2018-04-20T19:25:09.716Z,5.17
2018-04-20T19:27:38.740Z,4.93
2018-04-20T19:30:07.011Z,4.10
2018-04-20T19:32:36.060Z,4.30
2018-04-20T19:35:04.441Z,4.70
2018-04-20T19:37:32.776Z,4.40
2018-04-20T19:40:02.213Z,4.73
2018-04-20T19:42:30.505Z,4.63
2018-04-20T19:44:59.510Z,4.00
2018-04-20T19:47:28.530Z,4.97
2018-04-20T19:49:56.780Z,4.17
2018-04-20T19:52:25.037Z,4.50
2018-04-20T19:54:53.284Z,4.80
2018-04-20T19:57:22.334Z,4.40
2018-04-20T19:59:50.591Z,4.40
2018-04-20T20:02:19.622Z,4.00
2018-04-20T20:04:47.890Z,3.80
2018-04-20T20:07:16.182Z,4.37
2018-04-20T20:09:45.187Z,4.60
2018-04-20T20:12:13.460Z,4.07
2018-04-20T20:14:42.517Z,4.03
2018-04-20T20:17:11.607Z,3.70
2018-04-20T20:19:39.915Z,3.90
2018-04-20T20:22:08.211Z,4.10
2018-04-20T20:24:36.450Z,3.90
2018-04-20T20:27:05.456Z,4.03
2018-04-20T20:29:34.511Z,4.13
2018-04-20T20:32:02.824Z,3.93
2018-04-20T20:34:31.089Z,3.87
2018-04-20T20:36:59.397Z,3.60
2018-04-20T20:39:27.660Z,4.07
2018-04-20T20:41:55.890Z,3.77
2018-04-20T20:44:24.146Z,3.90
2018-04-20T20:46:52.457Z,4.30
2018-04-20T20:49:20.755Z,4.20
2018-04-20T20:51:49.003Z,3.90
2018-04-20T20:54:17.256Z,4.13
2018-04-20T20:56:46.388Z,4.10
2018-04-20T20:59:14.647Z,4.20
2018-04-20T21:01:43.697Z,4.33
2018-04-20T21:04:12.713Z,4.07
2018-04-20T21:06:40.955Z,4.60
2018-04-20T21:09:10.011Z,4.13
2018-04-20T21:11:38.244Z,4.43
2018-04-20T21:14:07.278Z,4.80
2018-04-20T21:16:35.526Z,4.87
2018-04-20T21:19:03.788Z,4.47
2018-04-20T21:21:32.070Z,5.17
2018-04-20T21:24:00.362Z,5.33
2018-04-20T21:26:28.609Z,6.40
2018-04-20T21:28:57.653Z,6.73
2018-04-20T21:31:25.892Z,6.40
2018-04-20T21:33:54.143Z,5.40
2018-04-20T21:36:23.146Z,6.70
2018-04-20T21:38:51.382Z,5.60
2018-04-20T21:41:20.412Z,5.10
2018-04-20T21:43:48.647Z,6.00
2018-04-20T21:46:16.911Z,5.83
2018-04-20T21:48:45.146Z,5.70
2018-04-20T21:51:14.925Z,4.77
2018-04-20T21:53:43.183Z,5.80
2018-04-20T21:56:11.453Z,6.07
2018-04-20T21:58:39.686Z,6.17
2018-04-20T22:01:07.941Z,5.73
2018-04-20T22:03:36.939Z,6.07
2018-04-20T22:06:05.988Z,4.93
2018-04-20T22:08:34.222Z,5.37
2018-04-20T22:11:02.495Z,5.17
2018-04-20T22:13:30.771Z,4.77
2018-04-20T22:15:59.033Z,5.60
2018-04-20T22:18:27.315Z,5.30
2018-04-20T22:20:55.583Z,5.30
2018-04-20T22:23:24.578Z,5.30
2018-04-20T22:25:52.855Z,5.20
2018-04-20T22:28:21.119Z,5.63
2018-04-20T22:30:49.408Z,5.33
2018-04-20T22:33:17.650Z,6.67
2018-04-20T22:35:46.712Z,6.40
2018-04-20T22:38:14.942Z,6.50
2018-04-20T22:40:43.211Z,6.23
2018-04-20T22:43:11.442Z,6.47
2018-04-20T22:45:39.707Z,6.40
2018-04-20T22:48:08.715Z,6.60
2018-04-20T22:50:37.767Z,6.40
2018-04-20T22:53:06.012Z,6.70
2018-04-20T22:55:35.026Z,6.13
2018-04-20T22:58:04.058Z,6.17
2018-04-20T23:00:32.322Z,5.70
2018-04-20T23:03:01.629Z,5.43
2018-04-20T23:05:30.635Z,5.30
2018-04-20T23:07:59.671Z,4.47
2018-04-20T23:10:27.906Z,4.73
2018-04-20T23:12:57.505Z,4.47
2018-04-20T23:15:25.751Z,4.97
2018-04-20T23:17:54.048Z,4.30
2018-04-20T23:20:27.626Z,4.30
2018-04-20T23:22:55.895Z,4.20
2018-04-20T23:25:24.194Z,4.30
2018-04-20T23:27:52.391Z,4.23
2018-04-20T23:30:20.667Z,4.07
2018-04-20T23:32:48.926Z,3.77
2018-04-20T23:35:17.159Z,3.93
2018-04-20T23:37:45.408Z,4.00
2018-04-20T23:40:13.655Z,3.80
2018-04-20T23:42:42.675Z,4.53
2018-04-20T23:45:10.907Z,4.50
2018-04-20T23:47:39.167Z,4.40
2018-04-20T23:50:07.404Z,4.00
2018-04-20T23:52:35.656Z,4.60
2018-04-20T23:55:03.903Z,3.90
2018-04-20T23:57:32.953Z,4.13
